createdAt,value
2019-04-28T00:00:45.709Z,96.84
2019-04-28T00:01:45.796Z,96.55
2019-04-28T00:02:45.880Z,96.36
2019-04-28T00:03:45.970Z,96.17
2019-04-28T00:04:46.060Z,96.65
2019-04-28T00:05:46.151Z,97.51
2019-04-28T00:06:46.242Z,97.60
2019-04-28T00:07:46.331Z,97.31
2019-04-28T00:08:46.423Z,98.27
2019-04-28T00:09:46.513Z,97.51
2019-04-28T00:10:55.263Z,97.41
2019-04-28T00:11:46.737Z,96.84
2019-04-28T00:12:55.465Z,96.55
2019-04-28T00:13:55.575Z,95.89
2019-04-28T00:14:47.048Z,95.32
2019-04-28T00:15:47.136Z,95.56
2019-04-28T00:16:47.235Z,95.79
2019-04-28T00:17:47.317Z,95.46
2019-04-28T00:18:57.059Z,95.60
2019-04-28T00:19:47.526Z,94.51
2019-04-28T00:20:57.271Z,94.84
2019-04-28T00:21:47.740Z,95.17
2019-04-28T00:22:47.831Z,96.08
2019-04-28T00:23:47.923Z,95.98
2019-04-28T00:24:48.013Z,96.46
2019-04-28T00:25:48.100Z,96.55
2019-04-28T00:26:48.190Z,96.89
2019-04-28T00:27:48.288Z,96.84
2019-04-28T00:28:48.381Z,96.55
2019-04-28T00:29:48.472Z,96.55
2019-04-28T00:30:48.554Z,96.84
2019-04-28T00:31:48.652Z,97.51
2019-04-28T00:32:48.743Z,97.31
2019-04-28T00:33:48.850Z,97.89
2019-04-28T00:34:50.992Z,97.99
2019-04-28T00:35:49.017Z,97.79
2019-04-28T00:36:51.104Z,97.89
2019-04-28T00:37:49.199Z,98.08
2019-04-28T00:38:49.291Z,97.89
2019-04-28T00:39:50.975Z,97.31
2019-04-28T00:40:51.141Z,97.03
2019-04-28T00:41:51.165Z,97.22
2019-04-28T00:42:51.190Z,96.55
2019-04-28T00:43:51.415Z,97.13
2019-04-28T00:44:51.505Z,97.13
2019-04-28T00:45:51.301Z,97.31
2019-04-28T00:46:51.145Z,97.60
2019-04-28T00:47:51.053Z,97.79
2019-04-28T00:48:50.838Z,97.89
2019-04-28T00:49:51.955Z,98.08
2019-04-28T00:50:51.863Z,97.89
2019-04-28T00:51:50.917Z,97.99
2019-04-28T00:52:51.817Z,98.18
2019-04-28T00:53:50.981Z,98.84
2019-04-28T00:54:52.484Z,98.94
2019-04-28T00:55:51.589Z,99.03
2019-04-28T00:56:51.701Z,99.22
2019-04-28T00:57:51.031Z,98.46
2019-04-28T00:58:51.365Z,98.27
2019-04-28T00:59:57.673Z,98.84
2019-04-28T01:00:51.420Z,99.32
2019-04-28T01:01:51.434Z,98.65
2019-04-28T01:02:51.475Z,98.65
2019-04-28T01:03:51.989Z,98.74
2019-04-28T01:04:51.662Z,98.65
2019-04-28T01:05:51.743Z,98.08
2019-04-28T01:06:52.117Z,98.36
2019-04-28T01:07:51.924Z,98.18
2019-04-28T01:08:52.021Z,98.08
2019-04-28T01:09:52.108Z,97.60
2019-04-28T01:10:52.197Z,96.84
2019-04-28T01:11:53.467Z,97.03
2019-04-28T01:12:52.380Z,97.89
2019-04-28T01:13:52.472Z,98.46
2019-04-28T01:14:55.045Z,98.84
2019-04-28T01:15:52.651Z,98.55
2019-04-28T01:16:52.744Z,98.65
2019-04-28T01:17:52.838Z,98.27
2019-04-28T01:18:52.924Z,97.99
2019-04-28T01:19:53.027Z,97.22
2019-04-28T01:20:53.114Z,96.17
2019-04-28T01:21:53.198Z,96.84
2019-04-28T01:22:53.288Z,96.65
2019-04-28T01:23:53.381Z,96.12
2019-04-28T01:24:53.470Z,96.41
2019-04-28T01:25:53.582Z,97.36
2019-04-28T01:26:53.668Z,97.36
2019-04-28T01:27:53.763Z,97.36
2019-04-28T01:28:53.849Z,97.08
2019-04-28T01:30:05.354Z,96.89
2019-04-28T01:30:54.033Z,96.51
2019-04-28T01:31:54.126Z,96.51
2019-04-28T01:32:54.214Z,96.12
2019-04-28T01:33:54.307Z,96.60
2019-04-28T01:34:54.397Z,96.51
2019-04-28T01:35:54.486Z,96.60
2019-04-28T01:37:01.732Z,96.31
2019-04-28T01:37:54.701Z,96.22
2019-04-28T01:38:54.785Z,96.79
2019-04-28T01:39:54.877Z,95.27
2019-04-28T01:40:54.964Z,95.12
2019-04-28T01:41:55.054Z,95.56
2019-04-28T01:42:55.143Z,94.51
2019-04-28T01:43:55.233Z,94.51
2019-04-28T01:44:55.321Z,94.42
2019-04-28T01:45:55.414Z,94.56
2019-04-28T01:46:55.501Z,94.98
2019-04-28T01:47:55.599Z,95.12
2019-04-28T01:48:55.683Z,94.42
2019-04-28T01:49:55.775Z,95.03
2019-04-28T01:50:55.870Z,95.79
2019-04-28T01:51:55.954Z,95.79
2019-04-28T01:52:56.048Z,95.79
2019-04-28T01:53:56.136Z,96.03
2019-04-28T01:54:56.225Z,96.65
2019-04-28T01:55:56.320Z,96.46
2019-04-28T01:56:58.592Z,96.94
2019-04-28T01:57:56.497Z,97.13
2019-04-28T01:58:56.590Z,96.84
2019-04-28T01:59:56.679Z,96.94
2019-04-28T02:00:56.771Z,97.13
2019-04-28T02:01:56.865Z,96.46
2019-04-28T02:02:56.945Z,96.17
2019-04-28T02:03:57.039Z,96.08
2019-04-28T02:04:57.128Z,96.27
2019-04-28T02:05:57.218Z,96.98
2019-04-28T02:06:57.311Z,97.27
2019-04-28T02:07:57.399Z,97.99
2019-04-28T02:08:57.489Z,98.08
2019-04-28T02:09:57.579Z,98.08
2019-04-28T02:10:57.671Z,98.08
2019-04-28T02:11:57.760Z,97.99
2019-04-28T02:12:59.788Z,98.27
2019-04-28T02:13:59.587Z,98.46
2019-04-28T02:14:58.045Z,98.27
2019-04-28T02:15:59.858Z,97.79
2019-04-28T02:16:58.223Z,97.36
2019-04-28T02:18:00.097Z,97.41
2019-04-28T02:18:59.730Z,95.94
2019-04-28T02:20:00.413Z,94.60
2019-04-28T02:20:59.581Z,95.17
2019-04-28T02:21:59.496Z,95.65
2019-04-28T02:22:59.904Z,96.12
2019-04-28T02:23:59.892Z,96.70
2019-04-28T02:25:00.308Z,97.55
2019-04-28T02:25:59.730Z,97.08
2019-04-28T02:27:00.833Z,97.27
2019-04-28T02:27:59.640Z,96.79
2019-04-28T02:29:00.282Z,97.08
2019-04-28T02:30:00.112Z,96.70
2019-04-28T02:31:02.112Z,96.31
2019-04-28T02:32:02.145Z,96.41
2019-04-28T02:33:01.641Z,96.51
2019-04-28T02:34:00.794Z,96.51
2019-04-28T02:35:01.242Z,96.31
2019-04-28T02:36:01.458Z,96.41
2019-04-28T02:37:01.487Z,96.12
2019-04-28T02:38:00.237Z,96.31
2019-04-28T02:39:00.860Z,96.89
2019-04-28T02:40:03.351Z,96.89
2019-04-28T02:41:00.418Z,96.79
2019-04-28T02:42:01.382Z,96.70
2019-04-28T02:43:01.291Z,96.98
2019-04-28T02:44:01.071Z,96.51
2019-04-28T02:45:00.911Z,96.60
2019-04-28T02:46:00.888Z,96.89
2019-04-28T02:47:01.255Z,97.46
2019-04-28T02:48:01.198Z,97.46
2019-04-28T02:49:01.134Z,97.93
2019-04-28T02:50:01.267Z,97.93
2019-04-28T02:51:01.392Z,97.84
2019-04-28T02:52:03.017Z,97.27
2019-04-28T02:53:01.913Z,97.36
2019-04-28T02:54:01.583Z,97.93
2019-04-28T02:55:03.106Z,97.93
2019-04-28T02:56:01.771Z,98.22
2019-04-28T02:57:01.876Z,98.03
2019-04-28T02:58:01.956Z,98.98
2019-04-28T02:59:02.048Z,98.79
2019-04-28T03:00:02.139Z,98.03
2019-04-28T03:01:11.195Z,97.65
2019-04-28T03:02:02.325Z,97.93
2019-04-28T03:03:02.409Z,97.84
2019-04-28T03:04:02.502Z,97.84
2019-04-28T03:05:02.596Z,98.13
2019-04-28T03:06:02.692Z,97.93
2019-04-28T03:07:02.765Z,97.84
2019-04-28T03:08:02.858Z,98.03
2019-04-28T03:09:02.945Z,97.93
2019-04-28T03:10:03.811Z,98.22
2019-04-28T03:11:03.137Z,98.60
2019-04-28T03:12:03.219Z,98.69
2019-04-28T03:13:03.309Z,98.13
2019-04-28T03:14:03.403Z,97.93
2019-04-28T03:15:03.491Z,98.03
2019-04-28T03:16:03.589Z,97.84
2019-04-28T03:17:03.672Z,97.36
2019-04-28T03:18:03.774Z,97.27
2019-04-28T03:19:03.855Z,96.79
2019-04-28T03:20:03.945Z,96.51
2019-04-28T03:21:04.658Z,96.60
2019-04-28T03:22:04.124Z,96.12
2019-04-28T03:23:04.218Z,95.84
2019-04-28T03:24:04.304Z,95.65
2019-04-28T03:25:04.429Z,95.08
2019-04-28T03:26:04.486Z,94.70
2019-04-28T03:27:04.575Z,94.89
2019-04-28T03:28:04.666Z,94.98
2019-04-28T03:29:04.759Z,94.89
2019-04-28T03:30:04.849Z,94.89
2019-04-28T03:31:35.012Z,94.51
2019-04-28T03:32:28.865Z,95.08
2019-04-28T03:33:11.825Z,94.89
2019-04-28T03:34:05.227Z,95.27
2019-04-28T03:35:05.295Z,96.03
2019-04-28T03:36:08.453Z,96.22
2019-04-28T03:37:05.476Z,95.84
2019-04-28T03:38:05.576Z,95.17
2019-04-28T03:39:05.658Z,95.94
2019-04-28T03:40:05.752Z,95.36
2019-04-28T03:41:05.872Z,95.46
2019-04-28T03:42:05.921Z,95.08
2019-04-28T03:43:06.034Z,95.08
2019-04-28T03:44:06.108Z,95.08
2019-04-28T03:45:06.201Z,95.17
2019-04-28T03:46:06.285Z,95.46
2019-04-28T03:47:06.378Z,95.17
2019-04-28T03:48:06.468Z,95.08
2019-04-28T03:49:06.564Z,95.46
2019-04-28T03:50:06.647Z,95.27
2019-04-28T03:51:06.734Z,95.56
2019-04-28T03:52:06.841Z,95.94
2019-04-28T03:53:06.914Z,96.70
2019-04-28T03:54:07.003Z,96.51
2019-04-28T03:55:07.095Z,96.51
2019-04-28T03:56:07.172Z,96.31
2019-04-28T03:57:07.287Z,96.98
2019-04-28T03:58:07.359Z,97.27
2019-04-28T03:59:10.148Z,97.27
2019-04-28T04:00:07.536Z,97.36
2019-04-28T04:01:10.432Z,97.08
2019-04-28T04:02:07.730Z,96.89
2019-04-28T04:03:10.661Z,96.98
2019-04-28T04:04:07.893Z,97.27
2019-04-28T04:05:10.883Z,96.70
2019-04-28T04:06:10.369Z,97.36
2019-04-28T04:07:08.164Z,97.36
2019-04-28T04:08:10.726Z,97.55
2019-04-28T04:09:08.348Z,97.27
2019-04-28T04:10:11.186Z,97.79
2019-04-28T04:11:10.886Z,97.93
2019-04-28T04:12:11.130Z,97.74
2019-04-28T04:13:10.981Z,97.84
2019-04-28T04:14:11.296Z,97.46
2019-04-28T04:15:11.176Z,97.65
2019-04-28T04:16:10.392Z,97.60
2019-04-28T04:17:11.245Z,97.17
2019-04-28T04:18:10.987Z,97.46
2019-04-28T04:19:10.636Z,96.84
2019-04-28T04:20:11.096Z,96.51
2019-04-28T04:21:11.134Z,96.46
2019-04-28T04:22:10.175Z,96.31
2019-04-28T04:23:11.329Z,96.79
2019-04-28T04:24:10.846Z,96.89
2019-04-28T04:25:12.456Z,96.65
2019-04-28T04:26:11.667Z,96.84
2019-04-28T04:27:10.672Z,96.79
2019-04-28T04:28:10.721Z,97.08
2019-04-28T04:29:10.310Z,97.55
2019-04-28T04:30:10.935Z,96.79
2019-04-28T04:31:10.609Z,96.26
2019-04-28T04:32:20.483Z,96.70
2019-04-28T04:33:11.250Z,96.31
2019-04-28T04:34:10.830Z,95.65
2019-04-28T04:35:10.719Z,95.65
2019-04-28T04:36:11.915Z,95.75
2019-04-28T04:37:12.659Z,95.46
2019-04-28T04:38:11.001Z,95.65
2019-04-28T04:39:11.082Z,95.36
2019-04-28T04:40:13.260Z,95.27
2019-04-28T04:41:11.468Z,95.46
2019-04-28T04:42:11.351Z,95.36
2019-04-28T04:43:11.517Z,94.70
2019-04-28T04:44:11.533Z,94.89
2019-04-28T04:45:11.626Z,94.79
2019-04-28T04:46:14.161Z,95.46
2019-04-28T04:47:11.830Z,95.36
2019-04-28T04:48:11.956Z,94.89
2019-04-28T04:49:12.013Z,94.89
2019-04-28T04:50:13.202Z,95.27
2019-04-28T04:51:12.186Z,94.70
2019-04-28T04:52:12.278Z,95.17
2019-04-28T04:53:12.369Z,95.75
2019-04-28T04:54:12.457Z,95.75
2019-04-28T04:55:12.549Z,96.60
2019-04-28T04:56:12.639Z,96.70
2019-04-28T04:57:12.737Z,97.46
2019-04-28T04:58:12.833Z,96.89
2019-04-28T04:59:12.917Z,96.41
2019-04-28T05:00:13.006Z,96.31
2019-04-28T05:01:13.095Z,96.31
2019-04-28T05:02:26.718Z,95.75
2019-04-28T05:03:13.282Z,95.65
2019-04-28T05:04:13.369Z,95.27
2019-04-28T05:05:13.471Z,95.17
2019-04-28T05:06:13.561Z,95.46
2019-04-28T05:07:13.652Z,95.27
2019-04-28T05:08:15.537Z,95.84
2019-04-28T05:09:13.832Z,95.08
2019-04-28T05:10:13.924Z,95.27
2019-04-28T05:11:14.017Z,94.13
2019-04-28T05:12:14.104Z,93.94
2019-04-28T05:13:14.191Z,93.89
2019-04-28T05:14:14.280Z,93.74
2019-04-28T05:15:14.373Z,93.32
2019-04-28T05:16:14.465Z,92.84
2019-04-28T05:17:14.556Z,92.27
2019-04-28T05:18:14.645Z,92.18
2019-04-28T05:19:14.737Z,91.89
2019-04-28T05:20:14.829Z,92.36
2019-04-28T05:21:14.916Z,92.27
2019-04-28T05:22:15.008Z,91.60
2019-04-28T05:23:15.105Z,90.94
2019-04-28T05:24:15.952Z,91.31
2019-04-28T05:25:15.302Z,91.03
2019-04-28T05:26:15.386Z,91.41
2019-04-28T05:27:17.342Z,91.51
2019-04-28T05:28:15.579Z,90.46
2019-04-28T05:29:19.980Z,89.75
2019-04-28T05:30:15.750Z,90.56
2019-04-28T05:31:20.627Z,90.56
2019-04-28T05:32:15.930Z,90.56
2019-04-28T05:33:16.023Z,90.27
2019-04-28T05:34:16.108Z,89.89
2019-04-28T05:35:17.561Z,89.41
2019-04-28T05:36:16.290Z,90.56
2019-04-28T05:37:16.372Z,90.75
2019-04-28T05:38:16.482Z,90.84
2019-04-28T05:39:16.570Z,90.84
2019-04-28T05:40:16.660Z,90.56
2019-04-28T05:41:16.765Z,90.27
2019-04-28T05:42:16.841Z,89.98
2019-04-28T05:43:16.939Z,89.98
2019-04-28T05:44:17.026Z,89.79
2019-04-28T05:45:17.115Z,89.22
2019-04-28T05:46:17.208Z,88.37
2019-04-28T05:47:17.295Z,87.51
2019-04-28T05:48:17.386Z,88.31
2019-04-28T05:49:19.395Z,88.27
2019-04-28T05:50:19.566Z,88.03
2019-04-28T05:51:19.761Z,87.84
2019-04-28T05:52:19.945Z,87.65
2019-04-28T05:53:19.291Z,87.17
2019-04-28T05:54:19.742Z,86.51
2019-04-28T05:55:18.021Z,87.36
2019-04-28T05:56:18.111Z,86.98
2019-04-28T05:57:18.207Z,87.17
2019-04-28T05:58:19.831Z,87.07
2019-04-28T05:59:19.473Z,86.41
2019-04-28T06:00:19.786Z,86.41
2019-04-28T06:01:20.317Z,87.07
2019-04-28T06:02:21.265Z,87.46
2019-04-28T06:03:19.959Z,86.88
2019-04-28T06:04:19.923Z,86.51
2019-04-28T06:05:19.998Z,86.60
2019-04-28T06:06:20.440Z,86.22
2019-04-28T06:07:20.225Z,86.22
2019-04-28T06:08:20.217Z,86.69
2019-04-28T06:09:20.358Z,87.17
2019-04-28T06:10:20.241Z,86.60
2019-04-28T06:11:20.244Z,85.08
2019-04-28T06:12:20.166Z,85.27
2019-04-28T06:13:20.264Z,85.17
2019-04-28T06:14:19.936Z,85.64
2019-04-28T06:15:20.440Z,85.36
2019-04-28T06:16:22.189Z,85.02
2019-04-28T06:17:20.644Z,85.02
2019-04-28T06:18:20.647Z,84.26
2019-04-28T06:19:20.319Z,84.45
2019-04-28T06:20:20.370Z,84.64
2019-04-28T06:21:20.464Z,84.74
2019-04-28T06:22:20.554Z,84.83
2019-04-28T06:23:20.647Z,84.83
2019-04-28T06:24:20.737Z,84.55
2019-04-28T06:25:20.838Z,84.83
2019-04-28T06:26:20.919Z,84.74
2019-04-28T06:27:21.008Z,84.07
2019-04-28T06:28:21.103Z,83.12
2019-04-28T06:29:21.233Z,84.74
2019-04-28T06:30:21.281Z,85.31
2019-04-28T06:31:21.376Z,85.41
2019-04-28T06:32:21.466Z,84.55
2019-04-28T06:33:21.559Z,83.59
2019-04-28T06:34:21.653Z,85.12
2019-04-28T06:35:21.743Z,85.41
2019-04-28T06:36:21.829Z,85.50
2019-04-28T06:37:21.920Z,84.74
2019-04-28T06:38:22.014Z,83.92
2019-04-28T06:39:22.103Z,83.54
2019-04-28T06:40:22.194Z,82.97
2019-04-28T06:41:22.279Z,82.78
2019-04-28T06:42:22.368Z,82.49
2019-04-28T06:43:22.461Z,82.78
2019-04-28T06:44:22.552Z,83.25
2019-04-28T06:45:22.644Z,83.06
2019-04-28T06:46:22.733Z,83.35
2019-04-28T06:47:22.828Z,82.78
2019-04-28T06:48:22.920Z,82.68
2019-04-28T06:49:23.013Z,81.67
2019-04-28T06:50:23.106Z,81.73
2019-04-28T06:51:23.198Z,81.63
2019-04-28T06:52:23.294Z,81.77
2019-04-28T06:53:23.385Z,81.96
2019-04-28T06:54:23.474Z,82.34
2019-04-28T06:55:23.582Z,82.43
2019-04-28T06:56:23.676Z,81.54
2019-04-28T06:57:23.767Z,80.54
2019-04-28T06:58:23.861Z,80.92
2019-04-28T06:59:23.955Z,81.02
2019-04-28T07:00:24.047Z,81.21
2019-04-28T07:01:24.135Z,82.17
2019-04-28T07:02:24.232Z,82.17
2019-04-28T07:03:24.325Z,83.02
2019-04-28T07:04:24.416Z,83.69
2019-04-28T07:05:24.508Z,83.88
2019-04-28T07:06:24.603Z,83.97
2019-04-28T07:07:24.694Z,83.50
2019-04-28T07:08:24.786Z,84.26
2019-04-28T07:09:24.925Z,83.88
2019-04-28T07:10:24.968Z,83.64
2019-04-28T07:11:25.063Z,81.92
2019-04-28T07:12:25.153Z,81.82
2019-04-28T07:13:25.251Z,82.40
2019-04-28T07:14:25.327Z,82.59
2019-04-28T07:15:25.422Z,82.01
2019-04-28T07:16:25.515Z,82.59
2019-04-28T07:17:25.611Z,81.44
2019-04-28T07:18:25.701Z,80.87
2019-04-28T07:19:25.789Z,80.87
2019-04-28T07:20:25.888Z,80.77
2019-04-28T07:21:25.973Z,80.11
2019-04-28T07:22:26.065Z,80.20
2019-04-28T07:23:26.158Z,79.82
2019-04-28T07:24:26.249Z,80.33
2019-04-28T07:25:26.341Z,80.01
2019-04-28T07:26:26.432Z,79.15
2019-04-28T07:27:26.526Z,79.91
2019-04-28T07:28:26.637Z,79.72
2019-04-28T07:29:26.719Z,79.44
2019-04-28T07:30:26.805Z,78.96
2019-04-28T07:31:26.893Z,79.63
2019-04-28T07:32:26.982Z,79.91
2019-04-28T07:33:35.907Z,79.53
2019-04-28T07:34:27.169Z,79.72
2019-04-28T07:35:27.259Z,79.72
2019-04-28T07:36:27.350Z,79.53
2019-04-28T07:37:27.444Z,79.72
2019-04-28T07:38:27.540Z,79.82
2019-04-28T07:39:27.631Z,79.72
2019-04-28T07:40:27.717Z,79.91
2019-04-28T07:41:27.811Z,80.20
2019-04-28T07:42:27.907Z,80.11
2019-04-28T07:43:28.007Z,78.77
2019-04-28T07:44:28.087Z,78.33
2019-04-28T07:45:28.178Z,78.91
2019-04-28T07:46:28.271Z,78.81
2019-04-28T07:47:28.361Z,79.10
2019-04-28T07:48:28.454Z,79.77
2019-04-28T07:49:28.545Z,78.62
2019-04-28T07:50:28.640Z,77.76
2019-04-28T07:51:28.794Z,77.86
2019-04-28T07:52:28.830Z,77.72
2019-04-28T07:53:28.923Z,78.39
2019-04-28T07:54:29.018Z,79.53
2019-04-28T07:55:29.108Z,80.20
2019-04-28T07:56:29.202Z,80.87
2019-04-28T07:57:29.301Z,80.68
2019-04-28T07:58:29.387Z,80.20
2019-04-28T07:59:29.481Z,80.30
2019-04-28T08:00:36.735Z,80.33
2019-04-28T08:01:29.705Z,79.67
2019-04-28T08:02:29.797Z,78.14
2019-04-28T08:03:29.889Z,77.47
2019-04-28T08:04:29.983Z,77.47
2019-04-28T08:05:30.075Z,77.28
2019-04-28T08:06:30.160Z,75.85
2019-04-28T08:07:30.262Z,75.85
2019-04-28T08:08:30.343Z,76.14
2019-04-28T08:09:30.435Z,76.71
2019-04-28T08:10:30.530Z,77.38
2019-04-28T08:11:30.622Z,77.38
2019-04-28T08:12:30.712Z,78.05
2019-04-28T08:13:30.803Z,77.70
2019-04-28T08:14:30.890Z,76.56
2019-04-28T08:15:30.984Z,76.65
2019-04-28T08:16:31.081Z,76.37
2019-04-28T08:17:31.174Z,74.55
2019-04-28T08:18:31.734Z,73.44
2019-04-28T08:19:31.377Z,73.83
2019-04-28T08:20:31.471Z,73.07
2019-04-28T08:21:31.566Z,73.07
2019-04-28T08:22:31.656Z,73.00
2019-04-28T08:23:31.751Z,72.05
2019-04-28T08:24:31.843Z,71.38
2019-04-28T08:25:31.937Z,71.19
2019-04-28T08:26:32.026Z,71.67
2019-04-28T08:27:32.121Z,72.14
2019-04-28T08:28:32.214Z,72.33
2019-04-28T08:29:32.308Z,73.29
2019-04-28T08:30:32.400Z,73.14
2019-04-28T08:31:32.492Z,72.18
2019-04-28T08:32:32.604Z,72.08
2019-04-28T08:33:33.359Z,71.13
2019-04-28T08:34:32.790Z,70.84
2019-04-28T08:35:32.882Z,70.36
2019-04-28T08:36:32.975Z,69.89
2019-04-28T08:37:33.069Z,69.79
2019-04-28T08:38:33.160Z,70.07
2019-04-28T08:39:33.256Z,69.98
2019-04-28T08:40:33.350Z,70.84
2019-04-28T08:41:33.443Z,70.36
2019-04-28T08:42:33.540Z,69.89
2019-04-28T08:43:33.631Z,69.41
2019-04-28T08:44:33.728Z,69.31
2019-04-28T08:45:33.829Z,68.84
2019-04-28T08:46:33.927Z,68.51
2019-04-28T08:47:34.013Z,70.04
2019-04-28T08:48:34.107Z,70.81
2019-04-28T08:49:34.203Z,70.81
2019-04-28T08:50:34.295Z,72.43
2019-04-28T08:51:34.392Z,70.81
2019-04-28T08:52:34.474Z,71.38
2019-04-28T08:53:34.565Z,71.86
2019-04-28T08:54:34.660Z,71.19
2019-04-28T08:55:34.755Z,71.38
2019-04-28T08:56:34.849Z,71.28
2019-04-28T08:57:34.942Z,71.00
2019-04-28T08:58:35.068Z,71.19
2019-04-28T08:59:35.165Z,71.92
2019-04-28T09:00:35.258Z,71.72
2019-04-28T09:01:35.355Z,72.24
2019-04-28T09:02:35.441Z,72.11
2019-04-28T09:03:35.541Z,71.06
2019-04-28T09:04:35.632Z,70.67
2019-04-28T09:05:35.727Z,70.87
2019-04-28T09:06:35.811Z,69.82
2019-04-28T09:07:35.912Z,70.33
2019-04-28T09:08:35.991Z,70.87
2019-04-28T09:09:36.090Z,71.72
2019-04-28T09:10:36.185Z,72.49
2019-04-28T09:11:36.279Z,72.72
2019-04-28T09:12:36.369Z,72.20
2019-04-28T09:13:36.469Z,70.39
2019-04-28T09:14:36.553Z,69.56
2019-04-28T09:15:36.649Z,70.01
2019-04-28T09:16:36.752Z,70.39
2019-04-28T09:17:36.858Z,71.34
2019-04-28T09:18:36.969Z,70.77
2019-04-28T09:19:37.070Z,70.29
2019-04-28T09:20:37.164Z,71.34
2019-04-28T09:21:37.264Z,71.53
2019-04-28T09:22:37.411Z,70.54
2019-04-28T09:23:37.446Z,71.31
2019-04-28T09:24:37.569Z,71.78
2019-04-28T09:25:37.633Z,71.88
2019-04-28T09:26:37.726Z,72.36
2019-04-28T09:27:37.819Z,72.45
2019-04-28T09:28:37.901Z,72.93
2019-04-28T09:29:38.005Z,73.22
2019-04-28T09:30:38.119Z,72.74
2019-04-28T09:31:38.202Z,72.13
2019-04-28T09:32:38.290Z,71.69
2019-04-28T09:33:38.397Z,72.36
2019-04-28T09:34:38.489Z,72.45
2019-04-28T09:35:38.588Z,72.45
2019-04-28T09:36:38.685Z,71.59
2019-04-28T09:37:38.770Z,71.12
2019-04-28T09:38:38.853Z,71.69
2019-04-28T09:39:38.953Z,72.26
2019-04-28T09:40:39.057Z,71.98
2019-04-28T09:41:39.165Z,71.69
2019-04-28T09:42:39.261Z,71.41
2019-04-28T09:43:39.468Z,71.12
2019-04-28T09:44:39.607Z,70.36
2019-04-28T09:45:39.540Z,70.39
2019-04-28T09:46:39.621Z,70.77
2019-04-28T09:47:39.725Z,70.48
2019-04-28T09:48:39.820Z,70.39
2019-04-28T09:49:39.915Z,70.10
2019-04-28T09:50:40.004Z,69.72
2019-04-28T09:51:40.090Z,68.90
2019-04-28T09:52:40.175Z,68.41
2019-04-28T09:53:40.270Z,68.41
2019-04-28T09:54:40.365Z,68.23
2019-04-28T09:55:40.460Z,68.07
2019-04-28T09:56:40.553Z,67.36
2019-04-28T09:57:40.643Z,67.21
2019-04-28T09:58:40.737Z,67.02
2019-04-28T09:59:40.828Z,67.21
2019-04-28T10:00:40.925Z,66.63
2019-04-28T10:01:41.034Z,68.26
2019-04-28T10:02:41.150Z,67.11
2019-04-28T10:03:41.310Z,67.11
2019-04-28T10:04:42.218Z,67.11
2019-04-28T10:05:41.433Z,66.16
2019-04-28T10:06:41.525Z,65.93
2019-04-28T10:07:41.617Z,66.50
2019-04-28T10:08:41.707Z,67.11
2019-04-28T10:09:41.815Z,68.55
2019-04-28T10:10:41.923Z,67.88
2019-04-28T10:11:42.026Z,67.97
2019-04-28T10:12:42.130Z,67.30
2019-04-28T10:13:42.238Z,68.45
2019-04-28T10:14:42.394Z,68.93
2019-04-28T10:15:42.437Z,68.74
2019-04-28T10:16:42.533Z,69.21
2019-04-28T10:17:42.622Z,67.97
2019-04-28T10:18:42.723Z,69.12
2019-04-28T10:19:42.798Z,68.64
2019-04-28T10:20:42.901Z,68.26
2019-04-28T10:21:43.007Z,68.07
2019-04-28T10:22:43.119Z,69.41
2019-04-28T10:23:43.205Z,69.70
2019-04-28T10:24:43.300Z,69.89
2019-04-28T10:25:43.387Z,69.60
2019-04-28T10:26:43.489Z,69.89
2019-04-28T10:27:43.574Z,69.41
2019-04-28T10:28:43.682Z,68.74
2019-04-28T10:29:43.776Z,68.55
2019-04-28T10:30:43.871Z,68.84
2019-04-28T10:31:43.961Z,69.31
2019-04-28T10:32:44.048Z,69.98
2019-04-28T10:33:44.155Z,69.89
2019-04-28T10:34:54.299Z,69.02
2019-04-28T10:35:44.330Z,69.60
2019-04-28T10:36:44.427Z,68.93
2019-04-28T10:37:45.660Z,70.07
2019-04-28T10:38:44.611Z,68.84
2019-04-28T10:39:44.709Z,69.12
2019-04-28T10:40:44.793Z,68.55
2019-04-28T10:41:44.889Z,67.78
2019-04-28T10:42:44.988Z,68.26
2019-04-28T10:43:45.086Z,68.84
2019-04-28T10:44:45.178Z,69.60
2019-04-28T10:45:45.271Z,69.79
2019-04-28T10:46:45.369Z,70.07
2019-04-28T10:47:45.450Z,69.89
2019-04-28T10:48:45.540Z,69.89
2019-04-28T10:49:45.641Z,69.60
2019-04-28T10:50:45.736Z,69.27
2019-04-28T10:51:58.483Z,69.89
2019-04-28T10:52:45.914Z,70.36
2019-04-28T10:53:46.013Z,70.56
2019-04-28T10:54:46.101Z,70.07
2019-04-28T10:55:46.198Z,70.17
2019-04-28T10:56:46.300Z,69.98
2019-04-28T10:57:46.390Z,69.41
2019-04-28T10:58:46.487Z,69.41
2019-04-28T10:59:46.576Z,70.07
2019-04-28T11:00:46.680Z,69.41
2019-04-28T11:01:46.770Z,69.50
2019-04-28T11:02:46.861Z,70.23
2019-04-28T11:03:46.957Z,70.61
2019-04-28T11:04:47.053Z,69.79
2019-04-28T11:05:47.150Z,68.74
2019-04-28T11:06:47.236Z,68.26
2019-04-28T11:07:47.344Z,68.84
2019-04-28T11:08:47.484Z,68.74
2019-04-28T11:09:47.517Z,69.21
2019-04-28T11:10:47.617Z,70.17
2019-04-28T11:11:47.713Z,70.07
2019-04-28T11:12:47.810Z,69.70
2019-04-28T11:13:47.898Z,70.90
2019-04-28T11:14:47.998Z,71.03
2019-04-28T11:15:48.085Z,71.47
2019-04-28T11:16:48.182Z,71.47
2019-04-28T11:17:48.284Z,71.28
2019-04-28T11:18:48.381Z,70.42
2019-04-28T11:19:48.472Z,69.85
2019-04-28T11:20:48.569Z,69.95
2019-04-28T11:21:48.680Z,69.47
2019-04-28T11:22:48.772Z,69.27
2019-04-28T11:23:48.854Z,69.47
2019-04-28T11:24:48.951Z,69.85
2019-04-28T11:25:49.051Z,71.38
2019-04-28T11:26:49.163Z,70.52
2019-04-28T11:27:49.258Z,69.85
2019-04-28T11:28:49.372Z,69.47
2019-04-28T11:29:49.456Z,69.27
2019-04-28T11:30:49.549Z,68.61
2019-04-28T11:31:49.634Z,68.90
2019-04-28T11:32:49.718Z,68.99
2019-04-28T11:33:49.815Z,69.18
2019-04-28T11:34:49.916Z,70.14
2019-04-28T11:35:50.006Z,70.33
2019-04-28T11:36:50.136Z,69.95
2019-04-28T11:37:50.192Z,70.23
2019-04-28T11:38:50.292Z,70.90
2019-04-28T11:39:50.371Z,72.24
2019-04-28T11:40:50.478Z,72.43
2019-04-28T11:41:50.572Z,71.67
2019-04-28T11:42:50.656Z,70.61
2019-04-28T11:43:50.746Z,70.71
2019-04-28T11:44:50.837Z,70.90
2019-04-28T11:45:50.932Z,72.05
2019-04-28T11:46:51.028Z,72.72
2019-04-28T11:47:51.120Z,73.67
2019-04-28T11:48:51.213Z,73.00
2019-04-28T11:49:51.339Z,73.39
2019-04-28T11:50:51.394Z,74.02
2019-04-28T11:51:51.481Z,75.16
2019-04-28T11:52:51.588Z,75.07
2019-04-28T11:53:51.692Z,75.93
2019-04-28T11:54:51.809Z,75.93
2019-04-28T11:55:51.905Z,76.88
2019-04-28T11:56:51.997Z,77.26
2019-04-28T11:57:52.092Z,78.99
2019-04-28T11:58:52.176Z,79.36
2019-04-28T11:59:54.093Z,77.09
2019-04-28T12:00:52.363Z,77.53
2019-04-28T12:01:52.462Z,79.21
2019-04-28T12:02:52.560Z,80.16
2019-04-28T12:03:52.647Z,80.54
2019-04-28T12:04:52.739Z,81.63
2019-04-28T12:05:52.834Z,81.82
2019-04-28T12:06:52.925Z,82.78
2019-04-28T12:07:53.016Z,82.78
2019-04-28T12:08:53.116Z,83.73
2019-04-28T12:10:03.803Z,84.11
2019-04-28T12:10:53.304Z,84.20
2019-04-28T12:11:53.387Z,83.83
2019-04-28T12:12:53.494Z,83.29
2019-04-28T12:13:53.581Z,83.11
2019-04-28T12:14:53.670Z,83.11
2019-04-28T12:15:53.761Z,82.06
2019-04-28T12:16:53.843Z,81.15
2019-04-28T12:17:53.951Z,81.97
2019-04-28T12:18:54.043Z,84.36
2019-04-28T12:19:54.140Z,84.92
2019-04-28T12:20:54.226Z,85.97
2019-04-28T12:21:54.329Z,86.74
2019-04-28T12:22:54.431Z,87.74
2019-04-28T12:23:54.524Z,87.45
2019-04-28T12:24:54.650Z,87.26
2019-04-28T12:25:54.710Z,87.16
2019-04-28T12:26:54.813Z,86.63
2019-04-28T12:27:54.919Z,85.77
2019-04-28T12:28:54.985Z,83.29
2019-04-28T12:29:55.075Z,82.43
2019-04-28T12:30:55.165Z,83.01
2019-04-28T12:31:55.260Z,85.63
2019-04-28T12:32:55.364Z,83.96
2019-04-28T12:33:55.445Z,82.63
2019-04-28T12:34:55.548Z,81.73
2019-04-28T12:35:55.649Z,82.87
2019-04-28T12:36:55.733Z,82.49
2019-04-28T12:37:55.816Z,83.01
2019-04-28T12:38:55.913Z,82.72
2019-04-28T12:39:55.989Z,82.72
2019-04-28T12:40:56.095Z,81.90
2019-04-28T12:41:56.198Z,81.04
2019-04-28T12:42:56.305Z,78.56
2019-04-28T12:43:56.397Z,77.51
2019-04-28T12:44:56.491Z,78.66
2019-04-28T12:45:56.579Z,78.51
2019-04-28T12:46:56.679Z,79.27
2019-04-28T12:47:56.767Z,77.42
2019-04-28T12:48:56.862Z,77.51
2019-04-28T12:49:56.958Z,78.09
2019-04-28T12:50:57.170Z,78.41
2019-04-28T12:51:57.182Z,78.60
2019-04-28T12:52:57.278Z,77.74
2019-04-28T12:53:57.369Z,77.01